CRL8 weather

Public forecast

Using degrees Celsius for public forecast. Weather courtesy of forecast.io.

Closest aviation weather report (METAR) to Roberts Lake Seaplane Base

Closest report is Muskoka Airport, 27.6 nm (51.1 km) SE. Retrieved 2020/08/11 12:42 UTC (0 seconds ago):

CYQA 111242Z AUTO 00000KT 9SM SCT021 OVC030 21/20 A2980 RMK SLP091 DENSITY ALT 1900FT

Closest aviation forecast (TAF) to Roberts Lake Seaplane Base

Closest forecast is Muskoka Airport, 27.6 nm (51.1 km) SE. Retrieved 2020/08/11 12:48 UTC (0 seconds ago):

TAF TAF CYQA 111144Z 1112/1124 VRB03KT P6SM SCT008 BKN030 TEMPO 1112/1113 VRB15G25KT 2SM TSRA BR BKN008 OVC030CB FM111300 VRB03KT P6SM SCT005 OVC020 TEMPO 1113/1116 5SM -SHRA BR BKN005 OVC020 PROB30 1113/1116 VRB15G25KT 2SM TSRA BR OVC005CB FM111600 27012KT P6SM BKN030 TEMPO 1116/1120 P6SM -SHRA BKN020 FM112000 28012KT P6SM FEW030 RMK FCST BASED ON AUTO OBS NXT FCST BY 111400Z